Time;durP1;ratioP1;P1;durP2;ratioP2;P2;SDS_P1;SDS_P2;PMS_P1;PMS_P2;Temp;Humidity;BMP_temperature;BMP_pressure;BME280_temperature;BME280_humidity;BME280_pressure;Samples;Min_cycle;Max_cycle;Signal;HPM_P1;HPM_P2
2021/12/13 00:01:50;;;;;;;33.75;8.50;;;10.50;99.90;;;;;;5055663;28;20024;-82
2021/12/13 00:04:28;;;;;;;26.25;7.25;;;10.50;99.90;;;;;;5073043;28;20447;-82
2021/12/13 00:07:06;;;;;;;34.30;8.27;;;10.50;99.90;;;;;;5073780;28;20062;-82
2021/12/13 00:09:43;;;;;;;30.38;7.95;;;10.50;99.90;;;;;;5073630;28;20024;-82
2021/12/13 00:12:09;;;;;;;29.60;8.98;;;10.50;99.90;;;;;;5073456;28;20032;-82
2021/12/13 00:14:47;;;;;;;34.78;9.10;;;10.50;99.90;;;;;;5073618;28;20078;-82
2021/12/13 00:17:21;;;;;;;25.65;8.93;;;10.50;99.90;;;;;;5055761;28;20036;-82
2021/12/13 00:19:51;;;;;;;38.67;9.82;;;10.50;99.90;;;;;;5073072;28;20020;-82
2021/12/13 00:22:24;;;;;;;28.50;9.95;;;10.40;99.90;;;;;;5073442;28;20025;-82
2021/12/13 00:24:53;;;;;;;29.40;9.82;;;10.50;99.90;;;;;;5073493;28;20361;-82
2021/12/13 00:27:27;;;;;;;28.92;10.13;;;10.50;99.90;;;;;;5073232;28;20017;-82
2021/12/13 00:29:58;;;;;;;24.60;7.78;;;10.40;99.90;;;;;;5073574;28;20465;-82
2021/12/13 00:32:37;;;;;;;28.27;7.50;;;10.50;99.90;;;;;;5055342;28;20116;-82
2021/12/13 00:35:08;;;;;;;26.98;6.93;;;10.40;99.90;;;;;;5055021;28;20064;-82
2021/12/13 00:37:40;;;;;;;22.75;7.68;;;10.50;99.90;;;;;;5073133;28;20028;-82
2021/12/13 00:40:18;;;;;;;20.33;7.47;;;10.50;99.90;;;;;;5073185;28;20056;-82
2021/12/13 00:42:53;;;;;;;25.70;7.35;;;10.50;99.90;;;;;;5072930;28;20040;-82
2021/12/13 00:45:23;;;;;;;22.67;6.68;;;10.50;99.90;;;;;;5073346;28;20395;-82
2021/12/13 00:47:50;;;;;;;29.02;7.75;;;10.50;99.90;;;;;;5064689;28;20388;-82
2021/12/13 00:50:22;;;;;;;30.13;7.38;;;10.50;99.90;;;;;;5073025;28;20067;-82
2021/12/13 00:52:49;;;;;;;21.98;7.53;;;10.50;99.90;;;;;;5073072;28;20567;-82
2021/12/13 00:55:22;;;;;;;26.45;8.38;;;10.50;99.90;;;;;;5073061;28;20032;-82
2021/12/13 00:57:50;;;;;;;28.33;8.18;;;10.40;99.90;;;;;;5072821;28;20104;-82
2021/12/13 01:00:30;;;;;;;25.25;8.18;;;10.40;99.90;;;;;;5072883;28;20059;-82
2021/12/13 01:03:06;;;;;;;26.80;8.38;;;10.50;99.90;;;;;;5072912;28;20029;-82
2021/12/13 01:05:35;;;;;;;35.95;8.05;;;10.40;99.90;;;;;;5072745;28;20104;-82
2021/12/13 01:08:08;;;;;;;26.45;8.70;;;10.40;99.90;;;;;;5054764;28;20025;-82
2021/12/13 01:10:55;;;;;;;29.15;6.85;;;10.40;99.90;;;;;;5055097;28;20060;-82
2021/12/13 01:13:41;;;;;;;31.75;7.07;;;10.40;99.90;;;;;;5072829;28;20027;-82
2021/12/13 01:19:23;;;;;;;25.60;7.35;;;10.30;99.90;;;;;;5077374;28;20789;-82
2021/12/13 01:22:01;;;;;;;24.55;7.15;;;10.30;99.90;;;;;;5076740;28;20494;-82
2021/12/13 01:25:03;;;;;;;27.10;6.88;;;10.30;99.90;;;;;;5077220;28;20383;-82
2021/12/13 01:27:38;;;;;;;29.85;7.10;;;10.30;99.90;;;;;;5076768;28;20131;-82
2021/12/13 01:30:16;;;;;;;22.27;6.05;;;10.20;99.90;;;;;;5076868;28;20029;-82
2021/12/13 01:32:46;;;;;;;23.38;7.10;;;10.20;99.90;;;;;;5076663;28;20487;-82
2021/12/13 01:35:25;;;;;;;30.95;7.63;;;10.20;99.90;;;;;;5058863;28;20032;-82
2021/12/13 01:37:53;;;;;;;30.10;6.53;;;10.20;99.90;;;;;;5076612;28;20033;-82
2021/12/13 01:40:25;;;;;;;24.42;6.43;;;10.20;99.90;;;;;;5070258;28;20067;-82
2021/12/13 01:42:58;;;;;;;26.27;6.35;;;10.20;99.90;;;;;;5076327;28;20025;-82
2021/12/13 01:45:26;;;;;;;22.10;6.32;;;10.20;99.90;;;;;;5076250;28;20040;-82
2021/12/13 01:47:54;;;;;;;22.85;5.75;;;10.20;99.90;;;;;;5058545;28;20017;-82
2021/12/13 01:50:29;;;;;;;22.70;5.35;;;10.20;99.90;;;;;;5076148;28;20025;-82
2021/12/13 01:52:56;;;;;;;22.40;5.70;;;10.20;99.90;;;;;;5076575;28;20028;-82
2021/12/13 01:55:25;;;;;;;19.42;4.75;;;10.20;99.90;;;;;;5076267;28;20078;-82
2021/12/13 01:58:08;;;;;;;25.52;5.15;;;10.20;99.90;;;;;;5054237;28;20048;-82
2021/12/13 02:01:09;;;;;;;19.75;4.47;;;10.20;99.90;;;;;;5076519;28;20012;-82
2021/12/13 02:03:59;;;;;;;20.48;4.55;;;10.20;99.90;;;;;;5075977;28;20116;-82
2021/12/13 02:06:27;;;;;;;18.35;4.18;;;10.20;99.90;;;;;;5076363;28;20028;-82
2021/12/13 02:08:57;;;;;;;14.40;3.33;;;10.20;99.90;;;;;;5057984;28;20491;-82
2021/12/13 02:11:24;;;;;;;17.52;3.15;;;10.20;99.90;;;;;;5057801;28;20484;-82
2021/12/13 02:14:12;;;;;;;21.38;3.50;;;10.20;99.90;;;;;;5075929;28;20111;-82
2021/12/13 02:19:53;;;;;;;15.20;3.75;;;10.20;99.90;;;;;;5061666;28;20051;-82
2021/12/13 02:22:44;;;;;;;14.10;3.60;;;10.20;99.90;;;;;;5075816;28;20029;-82
2021/12/13 02:25:21;;;;;;;12.30;3.08;;;10.20;99.90;;;;;;5075707;28;20048;-82
2021/12/13 02:28:01;;;;;;;16.52;3.10;;;10.20;99.90;;;;;;5067886;28;20029;-82
2021/12/13 02:30:31;;;;;;;;;;;10.20;99.90;;;;;;5058325;28;20102;-82
2021/12/13 02:32:58;;;;;;;17.48;2.92;;;10.10;99.90;;;;;;5075479;28;19909;-82
2021/12/13 02:35:27;;;;;;;11.70;2.90;;;10.20;99.90;;;;;;5075383;28;20033;-82
2021/12/13 02:37:53;;;;;;;19.30;4.45;;;10.20;99.90;;;;;;5075546;28;20022;-82
2021/12/13 02:40:20;;;;;;;15.88;3.08;;;10.10;99.90;;;;;;5075434;28;20048;-82
2021/12/13 02:42:47;;;;;;;14.30;3.03;;;10.20;99.90;;;;;;5074861;28;20388;-82
2021/12/13 02:45:23;;;;;;;15.25;3.03;;;10.20;99.90;;;;;;5057308;28;20488;-82
2021/12/13 02:47:55;;;;;;;15.85;3.13;;;10.10;99.90;;;;;;5075441;28;20024;-82
2021/12/13 02:50:29;;;;;;;17.88;3.55;;;10.10;99.90;;;;;;5057226;28;20028;-82
2021/12/13 02:53:06;;;;;;;15.70;3.15;;;10.10;99.90;;;;;;5073726;28;20035;-82
2021/12/13 02:55:32;;;;;;;17.20;3.15;;;10.10;99.90;;;;;;5074981;28;20028;-82
2021/12/13 02:58:10;;;;;;;23.77;3.40;;;10.10;99.90;;;;;;5074822;28;20099;-82
2021/12/13 03:01:15;;;;;;;19.70;3.80;;;10.10;99.90;;;;;;5069765;28;20032;-82
2021/12/13 03:03:48;;;;;;;19.30;3.58;;;10.10;99.90;;;;;;5074998;28;20434;-82
2021/12/13 03:06:30;;;;;;;14.68;3.67;;;10.10;99.90;;;;;;5075094;28;20108;-82
2021/12/13 03:09:08;;;;;;;19.23;3.53;;;10.10;99.90;;;;;;5058008;28;20082;-82
2021/12/13 03:11:34;;;;;;;14.60;3.25;;;10.00;99.90;;;;;;5067824;28;20021;-82
2021/12/13 03:14:17;;;;;;;24.05;3.15;;;10.10;99.90;;;;;;5075185;28;20016;-82
2021/12/13 03:16:53;;;;;;;14.60;3.60;;;10.10;99.90;;;;;;5075083;28;20491;-82
2021/12/13 03:19:28;;;;;;;16.23;3.35;;;10.10;99.90;;;;;;5074887;28;20013;-82
2021/12/13 03:22:14;;;;;;;12.05;3.80;;;10.10;99.90;;;;;;5056686;28;20032;-82
2021/12/13 03:25:04;;;;;;;19.77;4.55;;;10.00;99.90;;;;;;5056050;28;20037;-82
2021/12/13 03:27:33;;;;;;;;;;;10.00;99.90;;;;;;5075067;28;20029;-82
2021/12/13 03:30:11;;;;;;;16.13;5.50;;;10.00;99.90;;;;;;5071271;28;19909;-82
2021/12/13 03:32:53;;;;;;;11.70;4.78;;;10.00;99.90;;;;;;5074521;28;20395;-82
2021/12/13 03:35:42;;;;;;;13.77;5.38;;;10.00;99.90;;;;;;5074441;28;20095;-82
2021/12/13 03:38:15;;;;;;;14.55;5.22;;;9.90;99.90;;;;;;5063216;28;20037;-82
2021/12/13 03:40:41;;;;;;;12.10;4.93;;;9.90;99.90;;;;;;5065954;28;20652;-82
2021/12/13 03:43:15;;;;;;;15.40;4.68;;;9.90;99.90;;;;;;5054311;28;20059;-82
2021/12/13 03:45:55;;;;;;;15.25;4.32;;;9.80;99.90;;;;;;5054573;28;20083;-82
2021/12/13 03:48:22;;;;;;;;;;;9.80;99.90;;;;;;5034697;28;20469;-82
2021/12/13 03:50:51;;;;;;;8.50;3.08;;;9.70;99.90;;;;;;5034325;28;20561;-82
2021/12/13 03:53:21;;;;;;;9.80;2.92;;;9.80;99.90;;;;;;5034262;28;20048;-82
2021/12/13 03:55:52;;;;;;;10.00;3.20;;;9.70;99.90;;;;;;5034264;28;20034;-82
2021/12/13 03:58:20;;;;;;;9.15;2.70;;;9.70;99.90;;;;;;5041762;28;20403;-82
2021/12/13 04:01:13;;;;;;;7.85;2.55;;;9.70;99.90;;;;;;5055982;28;20047;-82
2021/12/13 04:03:41;;;;;;;10.02;2.55;;;9.60;99.90;;;;;;5041249;28;20047;-83
2021/12/13 04:06:07;;;;;;;8.90;2.30;;;9.70;99.90;;;;;;5046299;28;20585;-82
2021/12/13 04:08:34;;;;;;;7.00;2.00;;;9.60;99.90;;;;;;5048388;28;20488;-82
2021/12/13 04:11:06;;;;;;;9.70;2.17;;;9.60;99.90;;;;;;5053678;28;20429;-82
2021/12/13 04:13:37;;;;;;;7.20;2.17;;;9.60;99.90;;;;;;5053730;28;20025;-82
2021/12/13 04:16:34;;;;;;;9.30;1.92;;;9.60;99.90;;;;;;5035854;28;20427;-83
2021/12/13 04:19:08;;;;;;;5.95;2.00;;;9.60;99.90;;;;;;5054071;28;20025;-82
2021/12/13 04:21:56;;;;;;;4.20;2.00;;;9.60;99.90;;;;;;5053643;28;20024;-82
2021/12/13 04:24:51;;;;;;;9.50;2.40;;;9.60;99.90;;;;;;5035790;28;20055;-82
2021/12/13 04:27:24;;;;;;;9.02;2.60;;;9.60;99.90;;;;;;5063007;28;20036;-82
2021/12/13 04:29:54;;;;;;;8.48;2.35;;;9.60;99.90;;;;;;5055907;28;20039;-82
2021/12/13 04:32:22;;;;;;;6.32;2.15;;;9.50;99.90;;;;;;5055843;28;20031;-83
2021/12/13 04:34:51;;;;;;;5.07;2.05;;;9.50;99.90;;;;;;5055543;28;20081;-82
2021/12/13 04:37:21;;;;;;;3.28;1.70;;;9.60;99.90;;;;;;5072145;28;20031;-82
2021/12/13 04:39:55;;;;;;;4.93;1.80;;;9.50;99.90;;;;;;5058171;28;20052;-82
2021/12/13 04:42:23;;;;;;;7.50;1.92;;;9.50;99.90;;;;;;5055234;28;20282;-82
2021/12/13 04:45:19;;;;;;;6.50;1.90;;;9.60;99.90;;;;;;5035643;28;20021;-82
2021/12/13 04:47:57;;;;;;;10.65;2.17;;;9.50;99.90;;;;;;5033302;28;20049;-82
2021/12/13 04:50:53;;;;;;;10.98;2.92;;;9.50;99.90;;;;;;5033945;28;20020;-82
2021/12/13 04:53:31;;;;;;;9.15;3.25;;;9.50;99.90;;;;;;5072991;28;20104;-82
2021/12/13 04:56:16;;;;;;;9.20;4.07;;;9.40;99.90;;;;;;5035371;28;20037;-82
2021/12/13 04:58:45;;;;;;;14.45;5.00;;;9.40;99.90;;;;;;5053040;28;20060;-82
2021/12/13 05:01:13;;;;;;;9.88;5.25;;;9.40;99.90;;;;;;5059514;28;20032;-82
2021/12/13 05:03:43;;;;;;;8.68;5.57;;;9.40;99.90;;;;;;5073128;28;20024;-82
2021/12/13 05:06:30;;;;;;;11.13;6.20;;;9.30;99.90;;;;;;5049123;28;20752;-82
2021/12/13 05:08:58;;;;;;;12.45;6.65;;;9.30;99.90;;;;;;5042168;28;20066;-82
2021/12/13 05:11:40;;;;;;;11.35;6.60;;;9.30;99.90;;;;;;5072847;28;20067;-82
2021/12/13 05:14:08;;;;;;;10.85;6.55;;;9.30;99.90;;;;;;5073128;28;20024;-83
2021/12/13 05:16:47;;;;;;;13.02;7.13;;;9.20;99.90;;;;;;5054797;28;20518;-82
2021/12/13 05:19:16;;;;;;;10.93;6.40;;;9.20;99.90;;;;;;5073012;28;20469;-82
2021/12/13 05:21:47;;;;;;;10.77;6.65;;;9.20;99.90;;;;;;5072775;28;20472;-83
2021/12/13 05:24:19;;;;;;;12.10;7.03;;;9.20;99.90;;;;;;5049069;28;20435;-82
2021/12/13 05:26:50;;;;;;;14.07;6.80;;;9.20;99.90;;;;;;5045117;28;20063;-83
2021/12/13 05:29:36;;;;;;;11.32;6.95;;;9.20;99.90;;;;;;5050732;28;20017;-82
2021/12/13 05:32:21;;;;;;;16.15;7.63;;;9.30;99.90;;;;;;5040958;28;20385;-82
2021/12/13 05:34:58;;;;;;;12.43;7.45;;;9.20;99.90;;;;;;5063851;28;20032;-82
2021/12/13 05:37:24;;;;;;;11.10;6.88;;;9.20;99.90;;;;;;5045816;28;20382;-82
2021/12/13 05:39:59;;;;;;;12.63;7.45;;;9.20;99.90;;;;;;5019232;28;20053;-83
2021/12/13 05:42:36;;;;;;;13.07;7.95;;;9.20;99.90;;;;;;5064743;28;20390;-82
2021/12/13 05:45:03;;;;;;;15.20;8.20;;;9.20;99.90;;;;;;5072981;28;20071;-82
2021/12/13 05:47:28;;;;;;;12.73;8.57;;;9.10;99.90;;;;;;5066437;28;20388;-82
2021/12/13 05:53:45;;;;;;;16.88;8.90;;;9.10;99.90;;;;;;5057925;28;20036;-82
2021/12/13 05:56:15;;;;;;;17.92;8.93;;;9.10;99.90;;;;;;5046088;28;20035;-82
2021/12/13 05:58:49;;;;;;;12.18;8.30;;;9.10;99.90;;;;;;5063024;28;20052;-82
2021/12/13 06:01:28;;;;;;;10.45;7.85;;;9.10;99.90;;;;;;5035075;28;20037;-82
2021/12/13 06:04:09;;;;;;;14.77;8.02;;;9.00;99.90;;;;;;5057188;28;20056;-82
2021/12/13 06:06:49;;;;;;;13.65;7.65;;;9.00;99.90;;;;;;5076196;28;20025;-82
2021/12/13 06:09:45;;;;;;;10.53;7.03;;;9.00;99.90;;;;;;5038384;28;20040;-82
2021/12/13 06:12:23;;;;;;;9.38;6.97;;;9.00;99.90;;;;;;5067485;28;20071;-82
2021/12/13 06:14:49;;;;;;;12.02;6.45;;;9.00;99.90;;;;;;5058304;28;20024;-82
2021/12/13 06:17:21;;;;;;;11.30;6.80;;;9.00;99.90;;;;;;5075931;28;20032;-82
2021/12/13 06:20:09;;;;;;;14.07;7.07;;;8.90;99.90;;;;;;5058214;28;20032;-82
2021/12/13 06:22:35;;;;;;;11.80;7.15;;;9.00;99.90;;;;;;5058114;28;20020;-82
2021/12/13 06:25:12;;;;;;;14.30;7.72;;;8.90;99.90;;;;;;5058125;28;20435;-82
2021/12/13 06:27:51;;;;;;;14.45;7.15;;;8.90;99.90;;;;;;5076147;28;20025;-82
2021/12/13 06:30:17;;;;;;;15.90;7.60;;;8.90;99.90;;;;;;5075789;28;20543;-82
2021/12/13 06:32:48;;;;;;;16.40;8.13;;;8.90;99.90;;;;;;5057690;28;20119;-82
2021/12/13 06:35:37;;;;;;;13.75;7.57;;;8.90;99.90;;;;;;5075690;28;20369;-82
2021/12/13 06:38:20;;;;;;;17.13;9.00;;;8.90;99.90;;;;;;5075707;28;20048;-82
2021/12/13 06:41:09;;;;;;;15.32;8.50;;;8.90;99.90;;;;;;5057331;28;20049;-82
2021/12/13 06:43:58;;;;;;;16.52;8.80;;;8.90;99.90;;;;;;5057614;28;20043;-82
2021/12/13 06:46:23;;;;;;;14.82;8.63;;;8.90;99.90;;;;;;5066952;28;20060;-82
2021/12/13 06:49:21;;;;;;;16.45;9.73;;;8.90;99.90;;;;;;5057542;28;20048;-82
2021/12/13 06:51:53;;;;;;;14.90;9.85;;;8.90;99.90;;;;;;5065801;28;20079;-81
2021/12/13 06:54:24;;;;;;;17.88;10.07;;;8.90;99.90;;;;;;5075506;28;20048;-82
2021/12/13 06:57:20;;;;;;;17.92;10.57;;;8.90;99.90;;;;;;5075301;28;20021;-82
2021/12/13 06:59:53;;;;;;;18.20;11.65;;;8.90;99.90;;;;;;5061327;28;20036;-82
2021/12/13 07:02:24;;;;;;;22.35;11.25;;;8.80;99.90;;;;;;5075221;28;20029;-82
2021/12/13 07:04:57;;;;;;;17.67;10.60;;;8.90;99.90;;;;;;5075210;28;20111;-82
2021/12/13 07:07:27;;;;;;;17.52;11.18;;;8.80;99.90;;;;;;5057254;28;20035;-82
2021/12/13 07:09:59;;;;;;;21.92;11.48;;;8.90;99.90;;;;;;5075063;28;20017;-82
2021/12/13 07:12:27;;;;;;;18.48;11.30;;;8.80;99.90;;;;;;5074926;28;20525;-82
2021/12/13 07:14:52;;;;;;;21.73;12.65;;;8.80;99.90;;;;;;5056380;28;20031;-82
2021/12/13 07:17:31;;;;;;;21.25;12.23;;;8.80;99.90;;;;;;5056802;28;20107;-82
2021/12/13 07:19:58;;;;;;;21.90;12.18;;;8.80;99.90;;;;;;5075007;28;20029;-82
2021/12/13 07:22:28;;;;;;;20.52;11.73;;;8.80;99.90;;;;;;5074579;28;20025;-82
2021/12/13 07:28:33;;;;;;;19.25;11.93;;;8.80;99.90;;;;;;5074826;28;20032;-81
2021/12/13 07:31:03;;;;;;;23.17;11.68;;;8.80;99.90;;;;;;5074705;28;20020;-81
2021/12/13 07:33:42;;;;;;;21.30;12.50;;;8.80;99.90;;;;;;5063360;28;20020;-82
2021/12/13 07:36:34;;;;;;;22.13;12.75;;;8.90;99.90;;;;;;5072915;28;20028;-82
2021/12/13 07:39:08;;;;;;;21.65;12.57;;;8.90;99.90;;;;;;5051948;28;20037;-82
2021/12/13 07:41:44;;;;;;;21.50;12.57;;;8.90;99.90;;;;;;5072352;28;20476;-82
2021/12/13 07:44:32;;;;;;;21.02;12.02;;;8.90;99.90;;;;;;5056642;28;20098;-82
2021/12/13 07:47:08;;;;;;;19.17;11.68;;;8.90;99.90;;;;;;5059602;28;20055;-82
2021/12/13 07:49:40;;;;;;;23.45;12.15;;;8.90;99.90;;;;;;5056198;28;20563;-82
2021/12/13 07:52:06;;;;;;;21.55;12.20;;;8.90;99.90;;;;;;5074608;28;20024;-82
2021/12/13 07:54:42;;;;;;;21.38;12.65;;;8.90;99.90;;;;;;5056208;28;20016;-82
2021/12/13 07:57:22;;;;;;;19.52;11.95;;;8.90;99.90;;;;;;5056271;28;20031;-82
2021/12/13 07:59:50;;;;;;;21.10;12.32;;;8.90;99.90;;;;;;5055974;28;20028;-82
2021/12/13 08:02:23;;;;;;;22.52;12.23;;;9.00;99.90;;;;;;5073886;28;20037;-82
2021/12/13 08:05:13;;;;;;;23.70;13.25;;;9.00;99.90;;;;;;5059778;28;20024;-82
2021/12/13 08:07:49;;;;;;;23.53;12.30;;;8.90;99.90;;;;;;5094594;28;20024;-82
2021/12/13 08:10:33;;;;;;;20.05;12.07;;;9.00;99.90;;;;;;5094166;28;20809;-82
2021/12/13 08:13:07;;;;;;;19.98;12.00;;;9.10;99.90;;;;;;5075980;28;20024;-82
2021/12/13 08:16:02;;;;;;;19.65;11.77;;;9.10;99.90;;;;;;5093988;28;20020;-82
2021/12/13 08:18:33;;;;;;;20.60;11.52;;;9.10;99.90;;;;;;5054922;28;20572;-82
2021/12/13 08:21:05;;;;;;;21.48;12.15;;;9.10;83.60;;;;;;5094198;28;20020;-82
2021/12/13 08:23:44;;;;;;;19.88;12.20;;;9.20;51.00;;;;;;5094071;28;20085;-82
2021/12/13 08:26:15;;;;;;;20.40;12.80;;;9.20;35.80;;;;;;5074933;28;20031;-82
2021/12/13 08:28:49;;;;;;;18.10;10.88;;;9.20;1.00;;;;;;5094031;28;20035;-82
2021/12/13 08:31:26;;;;;;;18.55;11.52;;;9.20;1.70;;;;;;5093832;28;20030;-82
2021/12/13 08:33:56;;;;;;;18.52;10.63;;;9.30;11.20;;;;;;5093613;28;20032;-82
2021/12/13 08:36:44;;;;;;;20.95;11.88;;;9.20;1.00;;;;;;5093761;28;20028;-82
2021/12/13 08:39:12;;;;;;;17.08;10.68;;;9.20;1.00;;;;;;5075536;28;20020;-82
2021/12/13 08:41:43;;;;;;;18.48;10.80;;;9.20;1.00;;;;;;5093718;28;20048;-82
2021/12/13 08:44:11;;;;;;;18.10;11.55;;;9.30;1.00;;;;;;5075411;28;20055;-82
2021/12/13 08:46:42;;;;;;;16.50;10.57;;;9.40;1.00;;;;;;5075497;28;20115;-82
2021/12/13 08:49:15;;;;;;;18.27;10.75;;;9.30;1.00;;;;;;5093373;28;20023;-82
2021/12/13 08:51:52;;;;;;;17.30;10.38;;;9.40;1.00;;;;;;5056123;28;20028;-82
2021/12/13 08:54:18;;;;;;;16.40;9.93;;;9.40;1.00;;;;;;5093296;28;20081;-82
2021/12/13 08:56:47;;;;;;;17.20;9.93;;;9.40;1.00;;;;;;5075126;28;20474;-82
2021/12/13 08:59:24;;;;;;;17.80;9.85;;;9.40;1.00;;;;;;5093616;28;20031;-82
2021/12/13 09:02:11;;;;;;;15.98;10.48;;;9.50;1.00;;;;;;5075394;28;20032;-82
2021/12/13 09:05:12;;;;;;;15.25;10.35;;;9.50;1.00;;;;;;5093442;28;20020;-82
2021/12/13 09:07:50;;;;;;;16.85;9.65;;;9.50;1.00;;;;;;5074340;28;20047;-82
2021/12/13 09:10:15;;;;;;;15.30;9.48;;;9.50;1.00;;;;;;5055344;28;20116;-82
2021/12/13 09:12:45;;;;;;;16.20;9.43;;;9.40;1.00;;;;;;5073037;28;20103;-82
2021/12/13 09:15:37;;;;;;;13.85;9.05;;;9.50;1.00;;;;;;5093109;28;20020;-82
2021/12/13 09:18:06;;;;;;;15.75;9.30;;;9.40;1.00;;;;;;5088317;28;20114;-82
2021/12/13 09:20:41;;;;;;;16.67;9.65;;;9.40;1.00;;;;;;5075089;28;20438;-82
2021/12/13 09:23:15;;;;;;;16.70;9.55;;;9.40;1.00;;;;;;5074580;28;20059;-82
2021/12/13 09:25:54;;;;;;;15.40;9.30;;;9.50;1.00;;;;;;5074193;28;20048;-82
2021/12/13 09:28:29;;;;;;;14.90;9.40;;;9.50;1.00;;;;;;5092540;28;20051;-82
2021/12/13 09:30:57;;;;;;;16.65;10.05;;;9.50;1.00;;;;;;5092624;28;20048;-82
2021/12/13 09:33:24;;;;;;;16.35;9.38;;;9.50;99.90;;;;;;5092133;28;20468;-82
2021/12/13 09:35:57;;;;;;;18.15;9.65;;;9.60;99.90;;;;;;5074190;28;20107;-82
2021/12/13 09:38:31;;;;;;;14.88;9.55;;;9.70;99.90;;;;;;5096259;28;20024;-82
2021/12/13 09:41:25;;;;;;;17.88;9.80;;;9.80;99.90;;;;;;5096036;28;20059;-82
2021/12/13 09:44:17;;;;;;;16.73;10.20;;;9.80;99.90;;;;;;5096311;28;20032;-82
2021/12/13 09:46:58;;;;;;;17.33;9.60;;;10.00;99.90;;;;;;5064569;28;20387;-82
2021/12/13 09:49:45;;;;;;;16.30;9.38;;;10.00;99.90;;;;;;5094321;28;20047;-82
2021/12/13 09:52:25;;;;;;;13.93;8.45;;;9.90;99.90;;;;;;5096160;28;20891;-82
2021/12/13 09:54:57;;;;;;;;;;;9.90;99.90;;;;;;5096557;28;20118;-81
2021/12/13 09:57:36;;;;;;;13.63;8.38;;;9.90;99.90;;;;;;5096000;28;19908;-82
2021/12/13 10:00:24;;;;;;;14.13;8.30;;;9.90;99.90;;;;;;5079102;28;20039;-82
2021/12/13 10:02:54;;;;;;;14.93;8.40;;;10.00;99.90;;;;;;5087038;28;20408;-82
2021/12/13 10:05:26;;;;;;;14.32;8.27;;;10.00;99.90;;;;;;5077522;28;20028;-82
2021/12/13 10:07:58;;;;;;;10.73;7.70;;;10.10;99.90;;;;;;5084431;28;20895;-82
2021/12/13 10:10:48;;;;;;;14.40;7.90;;;10.30;99.90;;;;;;5078643;28;20066;-82
2021/12/13 10:13:18;;;;;;;12.00;8.00;;;10.40;99.90;;;;;;5080005;28;20032;-82
2021/12/13 10:15:58;;;;;;;14.52;7.82;;;10.60;99.90;;;;;;5081118;28;20093;-82
2021/12/13 10:18:30;;;;;;;12.85;7.75;;;10.60;99.90;;;;;;5081757;28;20431;-82
2021/12/13 10:21:06;;;;;;;12.90;8.20;;;10.70;99.90;;;;;;5057510;28;20043;-82
2021/12/13 10:23:37;;;;;;;12.10;7.43;;;10.80;99.90;;;;;;5068968;28;20038;-82
2021/12/13 10:26:06;;;;;;;13.85;7.97;;;10.80;99.90;;;;;;5077403;28;20391;-82
2021/12/13 10:28:35;;;;;;;12.35;7.78;;;10.80;99.90;;;;;;5095388;28;20060;-82
2021/12/13 10:31:10;;;;;;;11.57;7.95;;;10.90;99.90;;;;;;5095147;28;20055;-82
2021/12/13 10:33:37;;;;;;;10.90;7.50;;;10.90;99.90;;;;;;5075126;28;20467;-82
2021/12/13 10:36:06;;;;;;;14.07;7.55;;;10.90;99.90;;;;;;5075232;28;20017;-82
2021/12/13 10:38:38;;;;;;;10.13;7.00;;;10.80;99.90;;;;;;5074804;28;20032;-82
2021/12/13 10:41:08;;;;;;;14.13;7.07;;;10.90;99.90;;;;;;5056672;28;20051;-82
2021/12/13 10:43:41;;;;;;;15.85;7.65;;;10.90;99.90;;;;;;5074831;28;20472;-82
2021/12/13 10:46:25;;;;;;;14.38;7.32;;;11.00;99.90;;;;;;5081835;28;20012;-82
2021/12/13 10:48:57;;;;;;;13.50;7.88;;;11.00;99.90;;;;;;5094079;28;20020;-82
2021/12/13 10:51:28;;;;;;;10.88;6.68;;;11.00;99.90;;;;;;5077003;28;20020;-82
2021/12/13 10:53:55;;;;;;;13.77;6.97;;;11.00;99.90;;;;;;5095300;28;20290;-82
2021/12/13 10:56:29;;;;;;;13.23;7.15;;;10.90;99.90;;;;;;5076818;28;20071;-82
2021/12/13 10:58:58;;;;;;;11.38;7.07;;;11.00;99.90;;;;;;5076488;28;20062;-82
2021/12/13 11:01:29;;;;;;;14.52;7.68;;;10.90;99.90;;;;;;5076615;28;20067;-82
2021/12/13 11:03:58;;;;;;;13.82;7.68;;;10.90;99.90;;;;;;5094961;28;20040;-81
2021/12/13 11:06:24;;;;;;;11.00;6.93;;;10.90;99.90;;;;;;5094842;28;20092;-82
2021/12/13 11:08:50;;;;;;;13.00;7.05;;;10.90;99.90;;;;;;5076497;28;20463;-82
2021/12/13 11:11:33;;;;;;;10.55;7.28;;;11.10;99.90;;;;;;5094428;28;20048;-82
2021/12/13 11:14:05;;;;;;;9.02;6.88;;;11.20;99.90;;;;;;5076106;28;20058;-82
2021/12/13 11:16:35;;;;;;;10.73;6.93;;;11.20;99.90;;;;;;5074655;28;20063;-82
2021/12/13 11:19:04;;;;;;;15.23;7.10;;;11.20;99.90;;;;;;5082581;28;20035;-82
2021/12/13 11:21:36;;;;;;;11.40;6.72;;;11.30;99.90;;;;;;5088323;28;20027;-82
2021/12/13 11:24:05;;;;;;;10.13;6.78;;;11.30;99.90;;;;;;5076070;28;20043;-82
2021/12/13 11:26:33;;;;;;;13.02;7.78;;;11.30;99.90;;;;;;5076019;28;20101;-82
2021/12/13 11:29:00;;;;;;;15.30;7.07;;;11.30;99.90;;;;;;5079056;28;20021;-81
2021/12/13 11:31:29;;;;;;;11.85;6.72;;;11.50;99.90;;;;;;5065909;28;20078;-82
2021/12/13 11:34:04;;;;;;;11.23;6.95;;;11.50;99.90;;;;;;5079093;28;20032;-82
2021/12/13 11:37:04;;;;;;;14.65;7.18;;;11.60;99.90;;;;;;5083669;28;20357;-82
2021/12/13 11:39:56;;;;;;;14.18;6.80;;;11.60;99.90;;;;;;5058421;28;20219;-83
2021/12/13 11:42:48;;;;;;;11.77;7.10;;;11.70;99.90;;;;;;5072781;28;20071;-82
2021/12/13 11:45:45;;;;;;;12.68;6.82;;;11.80;99.90;;;;;;5035831;28;20082;-82
2021/12/13 11:48:30;;;;;;;11.75;7.38;;;11.80;99.90;;;;;;5073855;28;20105;-82
2021/12/13 11:51:30;;;;;;;12.25;6.95;;;11.80;99.90;;;;;;5073865;28;20062;-82
2021/12/13 11:54:11;;;;;;;12.20;7.00;;;11.80;96.30;;;;;;5076802;28;20020;-82
2021/12/13 11:56:52;;;;;;;13.35;7.10;;;11.80;91.50;;;;;;5089539;28;20057;-82
2021/12/13 11:59:33;;;;;;;11.45;6.47;;;11.80;95.30;;;;;;5067634;28;20040;-82
2021/12/13 12:02:01;;;;;;;11.43;7.13;;;11.70;87.20;;;;;;5084646;28;20059;-82
2021/12/13 12:05:06;;;;;;;13.25;7.38;;;11.80;93.70;;;;;;5079838;28;20012;-82
2021/12/13 12:08:06;;;;;;;11.35;6.82;;;11.80;90.10;;;;;;5069473;28;20036;-82
2021/12/13 12:10:53;;;;;;;12.45;7.93;;;11.80;93.10;;;;;;5073610;28;20395;-82
2021/12/13 12:13:51;;;;;;;15.82;7.70;;;11.80;90.90;;;;;;5077997;28;20024;-83
2021/12/13 12:16:21;;;;;;;13.98;7.75;;;11.80;85.30;;;;;;5067162;28;20032;-82
2021/12/13 12:18:50;;;;;;;12.95;8.20;;;11.70;82.10;;;;;;5090780;28;20040;-82
2021/12/13 12:21:35;;;;;;;13.60;8.70;;;11.60;86.90;;;;;;5073000;28;20479;-82
2021/12/13 12:24:14;;;;;;;13.70;7.80;;;11.70;95.00;;;;;;5090443;28;20088;-82
2021/12/13 12:26:42;;;;;;;14.15;7.93;;;11.70;91.90;;;;;;5072302;28;20028;-82
2021/12/13 12:29:11;;;;;;;12.35;7.72;;;11.70;99.90;;;;;;5063504;28;20134;-82
2021/12/13 12:31:41;;;;;;;14.23;7.50;;;11.70;99.90;;;;;;5083414;28;20024;-82
2021/12/13 12:34:08;;;;;;;;;;;11.70;87.60;;;;;;5077976;28;20028;-82
2021/12/13 12:36:57;;;;;;;11.20;6.72;;;11.70;93.70;;;;;;5077701;28;19908;-82
2021/12/13 12:39:38;;;;;;;12.98;6.75;;;11.70;83.30;;;;;;5066203;28;20029;-82
2021/12/13 12:42:32;;;;;;;10.95;6.90;;;11.60;81.10;;;;;;5070014;28;20092;-82
2021/12/13 12:45:05;;;;;;;11.65;6.97;;;11.60;75.30;;;;;;5057122;28;20122;-85
2021/12/13 12:47:34;;;;;;;12.65;7.00;;;11.60;83.60;;;;;;5055044;28;20039;-85
2021/12/13 12:50:22;;;;;;;11.88;6.35;;;11.50;93.00;;;;;;5076226;28;20511;-85
2021/12/13 12:52:55;;;;;;;12.52;6.68;;;11.40;90.80;;;;;;5083832;28;20038;-84
2021/12/13 12:55:25;;;;;;;11.85;6.88;;;11.50;84.80;;;;;;5090596;28;20028;-85
2021/12/13 12:57:51;;;;;;;13.05;7.32;;;11.50;71.40;;;;;;5070997;28;20028;-85
2021/12/13 13:00:23;;;;;;;12.55;6.65;;;11.40;91.10;;;;;;5064786;28;20067;-85
2021/12/13 13:02:50;;;;;;;13.30;8.25;;;11.50;94.30;;;;;;5076382;28;20047;-85
2021/12/13 13:05:18;;;;;;;13.63;6.95;;;11.50;90.50;;;;;;5072524;28;20051;-85
2021/12/13 13:07:45;;;;;;;10.32;6.57;;;11.40;93.40;;;;;;5090114;28;20021;-84
2021/12/13 13:13:02;;;;;;;11.85;6.57;;;11.40;94.50;;;;;;5086715;28;20122;-85
2021/12/13 13:15:31;;;;;;;8.98;6.30;;;11.40;93.10;;;;;;5094205;28;20475;-85
2021/12/13 13:18:07;;;;;;;10.05;6.07;;;11.30;91.80;;;;;;5076093;28;20036;-84
2021/12/13 13:20:39;;;;;;;11.68;6.28;;;11.30;94.60;;;;;;5094740;28;20396;-84
2021/12/13 13:23:05;;;;;;;10.48;5.72;;;11.40;99.90;;;;;;5094640;28;20028;-84
2021/12/13 13:25:39;;;;;;;8.93;5.47;;;11.30;99.90;;;;;;5094596;28;20095;-85
2021/12/13 13:28:27;;;;;;;10.20;6.15;;;11.30;99.30;;;;;;5068682;28;20032;-84
2021/12/13 13:31:08;;;;;;;7.93;5.53;;;11.20;97.40;;;;;;5094650;28;20024;-85
2021/12/13 13:33:43;;;;;;;14.73;5.85;;;11.20;99.90;;;;;;5093828;28;20078;-84
2021/12/13 13:36:17;;;;;;;11.70;5.30;;;11.20;99.90;;;;;;5086538;28;20085;-84
2021/12/13 13:38:44;;;;;;;9.25;4.88;;;11.20;99.90;;;;;;5093366;28;20036;-84
2021/12/13 13:41:20;;;;;;;13.20;5.45;;;11.20;99.90;;;;;;5084756;28;20044;-84
2021/12/13 13:43:48;;;;;;;9.13;5.18;;;11.20;99.90;;;;;;5075387;28;20114;-84